Schneifelwetter: Wetterstation Hallschlag, 537 m . NN
Wetterdaten: Samstag, 10.11.2012
Datum Zeit Temp. A. Feuchte A. Luftdruck Regen Wind Richtung Richtung Sonnenschein T Regen Taupunkt Windchill
10.11.2012 00:01 5,2 C 89 % 1007 hPa 0,0 l/m 14,2 km/h (3 Bft) S-SW22.5 195 0 min 0 min 3,5 C -0,3 C
10.11.2012 00:16 5,2 C 89 % 1006 hPa 0,0 l/m 16,5 km/h (3 Bft) S-SW22.5 200 0 min 0 min 3,5 C -1,4 C
10.11.2012 00:31 4,9 C 89 % 1006 hPa 0,0 l/m 9,4 km/h (2 Bft) S22.5 190 0 min 0 min 3,2 C 2,4 C
10.11.2012 00:45 5,1 C 90 % 1006 hPa 0,0 l/m 16,3 km/h (3 Bft) W-SW67.5 240 0 min 0 min 3,6 C -1,4 C
10.11.2012 01:00 5,5 C 90 % 1006 hPa 0,0 l/m 18,8 km/h (3 Bft) S-SW22.5 210 0 min 0 min 4,0 C -2,0 C
10.11.2012 01:15 5,7 C 90 % 1006 hPa 0,0 l/m 20,1 km/h (4 Bft) S-SW45 205 0 min 0 min 4,2 C -2,3 C
10.11.2012 01:30 5,8 C 90 % 1006 hPa 0,0 l/m 16,4 km/h (3 Bft) S-SW45 195 0 min 0 min 4,3 C -0,6 C
10.11.2012 01:45 5,8 C 90 % 1006 hPa 0,0 l/m 15,0 km/h (3 Bft) S-SW22.5 200 0 min 0 min 4,3 C 0,0 C
10.11.2012 02:00 5,9 C 90 % 1006 hPa 0,0 l/m 17,0 km/h (3 Bft) S22.5 185 0 min 0 min 4,4 C -0,8 C
10.11.2012 02:15 5,9 C 90 % 1005 hPa 0,0 l/m 18,0 km/h (3 Bft) S22.5 170 0 min 0 min 4,4 C -1,2 C
10.11.2012 02:30 5,8 C 91 % 1005 hPa 0,0 l/m 14,3 km/h (3 Bft) S22.5 170 0 min 0 min 4,4 C 0,4 C
10.11.2012 02:45 5,6 C 92 % 1005 hPa 0,0 l/m 11,6 km/h (2 Bft) S22.5 180 0 min 0 min 4,4 C 1,7 C
10.11.2012 03:00 5,3 C 92 % 1005 hPa 0,0 l/m 10,3 km/h (2 Bft) S45 180 0 min 0 min 4,1 C 2,2 C
10.11.2012 03:15 5,3 C 93 % 1005 hPa 0,0 l/m 9,6 km/h (2 Bft) S-SW22.5 210 0 min 0 min 4,3 C 2,7 C
10.11.2012 03:30 5,3 C 94 % 1004 hPa 0,6 l/m 7,5 km/h (2 Bft) S 170 0 min 15 min 4,4 C 4,3 C
10.11.2012 03:45 5,3 C 94 % 1004 hPa 0,0 l/m 11,0 km/h (2 Bft) S22.5 175 0 min 0 min 4,4 C 1,7 C
10.11.2012 04:00 5,3 C 94 % 1004 hPa 0,0 l/m 8,2 km/h (2 Bft) S-SW 195 0 min 0 min 4,4 C 3,8 C
10.11.2012 04:15 5,4 C 94 % 1004 hPa 0,0 l/m 15,2 km/h (3 Bft) S22.5 185 0 min 0 min 4,5 C -0,5 C
10.11.2012 04:30 5,4 C 94 % 1004 hPa 0,0 l/m 10,8 km/h (2 Bft) S22.5 170 0 min 0 min 4,5 C 2,0 C
10.11.2012 04:45 5,6 C 95 % 1003 hPa 0,0 l/m 17,3 km/h (3 Bft) S22.5 175 0 min 0 min 4,9 C -1,3 C
10.11.2012 05:00 5,8 C 96 % 1003 hPa 0,0 l/m 17,8 km/h (3 Bft) S-SW22.5 205 0 min 0 min 5,2 C -1,2 C
10.11.2012 05:15 5,9 C 96 % 1003 hPa 0,0 l/m 21,3 km/h (4 Bft) S45 185 0 min 0 min 5,3 C -2,5 C
10.11.2012 05:30 5,8 C 96 % 1003 hPa 0,0 l/m 23,0 km/h (4 Bft) S45 190 0 min 0 min 5,2 C -3,2 C
10.11.2012 05:45 5,8 C 96 % 1003 hPa 0,0 l/m 17,3 km/h (3 Bft) S-SW45 195 0 min 0 min 5,2 C -1,0 C
10.11.2012 06:00 5,6 C 96 % 1003 hPa 0,0 l/m 15,0 km/h (3 Bft) S-SO22.5 160 0 min 0 min 5,0 C -0,2 C
10.11.2012 06:15 5,7 C 96 % 1003 hPa 0,0 l/m 18,1 km/h (3 Bft) S22.5 170 0 min 0 min 5,1 C -1,5 C
10.11.2012 06:30 5,8 C 97 % 1003 hPa 0,0 l/m 19,8 km/h (3 Bft) S67.5 190 0 min 0 min 5,4 C -2,1 C
10.11.2012 06:45 5,9 C 97 % 1003 hPa 0,0 l/m 16,2 km/h (3 Bft) S67.5 180 0 min 0 min 5,5 C -0,4 C
10.11.2012 07:00 6,0 C 97 % 1003 hPa 0,0 l/m 14,3 km/h (3 Bft) S-SW67.5 205 0 min 0 min 5,6 C 0,6 C
10.11.2012 07:15 6,0 C 97 % 1003 hPa 0,0 l/m 16,4 km/h (3 Bft) SW22.5 215 0 min 0 min 5,6 C -0,4 C
10.11.2012 07:30 6,2 C 97 % 1003 hPa 0,0 l/m 16,7 km/h (3 Bft) SW22.5 215 0 min 0 min 5,8 C -0,3 C
10.11.2012 07:45 6,3 C 97 % 1002 hPa 0,0 l/m 15,6 km/h (3 Bft) SW22.5 230 0 min 0 min 5,9 C 0,4 C
10.11.2012 08:00 6,5 C 97 % 1002 hPa 0,0 l/m 14,0 km/h (3 Bft) W-SW45 240 0 min 0 min 6,1 C 1,4 C
10.11.2012 08:15 6,6 C 97 % 1002 hPa 0,0 l/m 19,0 km/h (3 Bft) SW22.5 215 0 min 0 min 6,2 C -0,7 C
10.11.2012 08:30 6,7 C 97 % 1003 hPa 0,0 l/m 22,5 km/h (4 Bft) SW45 225 0 min 0 min 6,3 C -1,9 C
10.11.2012 08:45 6,7 C 97 % 1002 hPa 0,0 l/m 15,3 km/h (3 Bft) SW45 220 0 min 0 min 6,3 C 1,0 C
10.11.2012 09:00 6,8 C 97 % 1002 hPa 0,0 l/m 16,1 km/h (3 Bft) SW45 215 0 min 0 min 6,4 C 0,7 C
10.11.2012 09:15 7,0 C 97 % 1002 hPa 0,0 l/m 18,4 km/h (3 Bft) S22.5 180 0 min 0 min 6,6 C 0,0 C
10.11.2012 09:31 7,1 C 97 % 1002 hPa 0,0 l/m 19,9 km/h (4 Bft) S45 190 0 min 0 min 6,7 C -0,4 C
10.11.2012 09:45 7,2 C 98 % 1002 hPa 0,0 l/m 19,2 km/h (3 Bft) S45 180 0 min 0 min 6,9 C -0,0 C
10.11.2012 10:00 7,2 C 98 % 1002 hPa 0,0 l/m 19,0 km/h (3 Bft) S45 185 0 min 0 min 6,9 C 0,0 C
10.11.2012 10:15 7,2 C 98 % 1002 hPa 0,0 l/m 12,5 km/h (3 Bft) S22.5 175 0 min 0 min 6,9 C 3,0 C
10.11.2012 10:30 7,2 C 98 % 1001 hPa 0,0 l/m 13,6 km/h (3 Bft) S22.5 170 0 min 0 min 6,9 C 2,4 C
10.11.2012 10:45 7,5 C 98 % 1001 hPa 0,3 l/m 9,9 km/h (2 Bft) S22.5 175 0 min 15 min 7,2 C 4,9 C
10.11.2012 11:01 7,7 C 98 % 1001 hPa 0,0 l/m 12,4 km/h (3 Bft) S45 175 0 min 0 min 7,4 C 3,6 C
10.11.2012 11:15 7,9 C 98 % 1001 hPa 0,0 l/m 10,6 km/h (2 Bft) S45 170 0 min 0 min 7,6 C 4,9 C
10.11.2012 11:30 7,9 C 98 % 1001 hPa 0,0 l/m 9,6 km/h (2 Bft) S-SO22.5 165 0 min 0 min 7,6 C 5,5 C
10.11.2012 11:45 7,9 C 98 % 1001 hPa 0,0 l/m 16,5 km/h (3 Bft) S22.5 185 0 min 0 min 7,6 C 1,9 C
10.11.2012 12:00 7,9 C 98 % 1001 hPa 0,0 l/m 16,5 km/h (3 Bft) S22.5 185 0 min 0 min 7,6 C 1,9 C
10.11.2012 12:15 7,8 C 98 % 1001 hPa 0,0 l/m 16,5 km/h (3 Bft) S22.5 185 0 min 0 min 7,5 C 1,8 C
10.11.2012 12:30 8,0 C 98 % 1001 hPa 0,0 l/m 15,4 km/h (3 Bft) S22.5 175 0 min 0 min 7,7 C 2,5 C
10.11.2012 12:45 8,0 C 98 % 1000 hPa 0,0 l/m 16,6 km/h (3 Bft) S45 180 0 min 0 min 7,7 C 2,0 C
10.11.2012 13:00 8,2 C 98 % 1000 hPa 0,0 l/m 17,4 km/h (3 Bft) S22.5 180 0 min 0 min 7,9 C 1,9 C
10.11.2012 13:15 8,4 C 99 % 1000 hPa 0,0 l/m 17,4 km/h (3 Bft) S22.5 180 0 min 0 min 8,3 C 2,2 C
10.11.2012 13:30 8,6 C 99 % 1000 hPa 0,0 l/m 12,3 km/h (3 Bft) S45 180 0 min 0 min 8,5 C 4,7 C
10.11.2012 13:46 9,2 C 99 % 1000 hPa 0,0 l/m 12,3 km/h (3 Bft) S45 180 0 min 0 min 9,1 C 5,4 C
10.11.2012 14:00 9,3 C 99 % 1000 hPa 0,0 l/m 12,3 km/h (3 Bft) S45 180 0 min 0 min 9,2 C 5,6 C
10.11.2012 14:15 9,1 C 99 % 1000 hPa 0,0 l/m 12,8 km/h (3 Bft) S22.5 170 0 min 0 min 9,0 C 5,1 C
10.11.2012 14:30 9,1 C 99 % 1000 hPa 0,0 l/m 14,3 km/h (3 Bft) S45 185 0 min 0 min 9,0 C 4,4 C
10.11.2012 14:45 9,2 C 99 % 1000 hPa 0,0 l/m 20,6 km/h (4 Bft) S-SW45 205 0 min 0 min 9,1 C 2,1 C
10.11.2012 15:00 9,2 C 99 % 1000 hPa 0,0 l/m 10,5 km/h (2 Bft) S-SW45 210 0 min 0 min 9,1 C 6,4 C
10.11.2012 15:16 9,2 C 99 % 1000 hPa 0,0 l/m 14,6 km/h (3 Bft) SW45 220 0 min 0 min 9,1 C 4,3 C
10.11.2012 15:30 9,2 C 99 % 999 hPa 0,0 l/m 15,1 km/h (3 Bft) S-SW45 210 0 min 0 min 9,1 C 4,1 C
10.11.2012 15:45 9,2 C 99 % 999 hPa 0,0 l/m 13,4 km/h (3 Bft) S-SW22.5 200 0 min 0 min 9,1 C 4,9 C
10.11.2012 16:00 9,0 C 99 % 999 hPa 0,0 l/m 6,8 km/h (2 Bft) SW45 215 0 min 0 min 8,9 C 8,7 C
10.11.2012 16:15 9,0 C 99 % 999 hPa 0,0 l/m 6,8 km/h (2 Bft) SW45 215 0 min 0 min 8,9 C 8,7 C
10.11.2012 16:30 8,9 C 99 % 999 hPa 3,3 l/m 3,0 km/h (1 Bft) S-SO 165 0 min 15 min 8,8 C 8,9 C
10.11.2012 16:46 8,8 C 99 % 999 hPa 0,6 l/m 3,0 km/h (1 Bft) S-SO 165 0 min 16 min 8,7 C 8,8 C
10.11.2012 17:00 8,7 C 99 % 999 hPa 0,3 l/m 15,3 km/h (3 Bft) SW22.5 220 0 min 14 min 8,6 C 3,4 C
10.11.2012 17:15 8,6 C 99 % 998 hPa 0,0 l/m 3,5 km/h (1 Bft) S22.5 185 0 min 0 min 8,5 C 8,6 C
10.11.2012 17:30 8,4 C 99 % 998 hPa 0,0 l/m 12,2 km/h (2 Bft) S-SW45 210 0 min 0 min 8,3 C 4,6 C
10.11.2012 17:45 8,4 C 99 % 998 hPa 0,0 l/m 13,9 km/h (3 Bft) S-SW45 210 0 min 0 min 8,3 C 3,7 C
10.11.2012 18:00 8,4 C 99 % 999 hPa 0,0 l/m 15,4 km/h (3 Bft) S45 190 0 min 0 min 8,3 C 3,0 C
10.11.2012 18:16 8,4 C 99 % 999 hPa 0,0 l/m 15,4 km/h (3 Bft) S45 190 0 min 0 min 8,3 C 3,0 C
10.11.2012 18:30 8,5 C 99 % 999 hPa 0,0 l/m 19,2 km/h (3 Bft) SW45 215 0 min 0 min 8,4 C 1,6 C
10.11.2012 18:45 8,6 C 99 % 999 hPa 0,0 l/m 24,1 km/h (4 Bft) SW45 215 0 min 0 min 8,5 C 0,2 C
10.11.2012 19:00 8,4 C 99 % 999 hPa 0,0 l/m 16,3 km/h (3 Bft) SW45 215 0 min 0 min 8,3 C 2,6 C
10.11.2012 19:15 8,1 C 98 % 999 hPa 0,0 l/m 19,1 km/h (3 Bft) SW45 215 0 min 0 min 7,8 C 1,2 C
10.11.2012 19:30 7,8 C 98 % 999 hPa 0,0 l/m 17,0 km/h (3 Bft) SW45 225 0 min 0 min 7,5 C 1,6 C
10.11.2012 19:46 7,7 C 98 % 999 hPa 0,0 l/m 27,0 km/h (4 Bft) SW45 230 0 min 0 min 7,4 C -1,8 C
10.11.2012 20:00 7,7 C 98 % 999 hPa 0,0 l/m 20,2 km/h (4 Bft) SW22.5 215 0 min 0 min 7,4 C 0,2 C
10.11.2012 20:15 7,8 C 98 % 999 hPa 0,0 l/m 20,2 km/h (4 Bft) SW22.5 215 0 min 0 min 7,5 C 0,4 C
10.11.2012 20:30 7,8 C 98 % 999 hPa 0,0 l/m 20,2 km/h (4 Bft) SW22.5 215 0 min 0 min 7,5 C 0,4 C
10.11.2012 20:45 7,9 C 98 % 999 hPa 0,0 l/m 20,1 km/h (4 Bft) SW45 215 0 min 0 min 7,6 C 0,5 C
10.11.2012 21:00 8,0 C 98 % 999 hPa 0,0 l/m 16,6 km/h (3 Bft) S-SW22.5 200 0 min 0 min 7,7 C 2,0 C
10.11.2012 21:16 8,0 C 98 % 1000 hPa 0,0 l/m 17,8 km/h (3 Bft) S-SW45 210 0 min 0 min 7,7 C 1,5 C
10.11.2012 21:30 8,0 C 98 % 1000 hPa 0,0 l/m 22,8 km/h (4 Bft) S-SW45 200 0 min 0 min 7,7 C -0,2 C
10.11.2012 21:45 7,9 C 98 % 1000 hPa 0,0 l/m 21,1 km/h (4 Bft) SW45 215 0 min 0 min 7,6 C 0,2 C
10.11.2012 22:00 7,8 C 98 % 1000 hPa 0,0 l/m 21,5 km/h (4 Bft) S-SW45 200 0 min 0 min 7,5 C -0,1 C
10.11.2012 22:15 7,9 C 98 % 1000 hPa 0,0 l/m 30,0 km/h (5 Bft) S-SW45 210 0 min 0 min 7,6 C -2,3 C
10.11.2012 22:30 8,0 C 98 % 1000 hPa 0,0 l/m 18,8 km/h (3 Bft) S-SW45 205 0 min 0 min 7,7 C 1,1 C
10.11.2012 22:46 8,1 C 98 % 1000 hPa 0,0 l/m 15,3 km/h (3 Bft) W-SW22.5 240 0 min 0 min 7,8 C 2,7 C
10.11.2012 23:00 8,1 C 98 % 1000 hPa 0,0 l/m 16,8 km/h (3 Bft) SW45 215 0 min 0 min 7,8 C 2,1 C
10.11.2012 23:15 8,2 C 98 % 1000 hPa 0,0 l/m 23,5 km/h (4 Bft) SW45 220 0 min 0 min 7,9 C -0,2 C
10.11.2012 23:30 8,3 C 98 % 1000 hPa 0,0 l/m 26,5 km/h (4 Bft) S-SW45 205 0 min 0 min 8,0 C -0,9 C
10.11.2012 23:45 8,4 C 97 % 1000 hPa 0,0 l/m 24,0 km/h (4 Bft) SW45 220 0 min 0 min 8,0 C -0,1 C
_ Min-Zeit 00:31 00:01 17:15 - 16:30 - - - - 00:31 05:30
Minimum _ 4,9 C 89 % 998 hPa - 3,0 km/h (1 Bft) - - - - 3,2 C -3,2 C
_ Max-Zeit 14:00 13:15 00:01 16:30 22:15 - - 00:01 16:46 14:00 16:30
Maximum _ 9,3 C 99 % 1007 hPa 3,3 l/m 30,0 km/h
S-SW (5 Bft)
- - 0 min 16 min 9,2 C 8,9 C
Durchschnitt _ 7,3 C 97 % 1002 hPa #5,1 l/m 15,9 km/h (3 Bft) S - #0 min. #1:15 h 6,8 C 1,7 C